sensor_id;sensor_type;location;lat;lon;timestamp;P1;durP1;ratioP1;P2;durP2;ratioP2
24873;SDS011;12945;42.648;23.370;2023-09-08T00:00:47;19.70;;;14.45;;
24873;SDS011;12945;42.648;23.370;2023-09-08T00:03:13;20.10;;;12.57;;
24873;SDS011;12945;42.648;23.370;2023-09-08T00:05:38;19.45;;;13.18;;
24873;SDS011;12945;42.648;23.370;2023-09-08T00:08:03;20.23;;;12.18;;
24873;SDS011;12945;42.648;23.370;2023-09-08T00:10:29;22.00;;;12.65;;
24873;SDS011;12945;42.648;23.370;2023-09-08T00:12:54;15.85;;;11.07;;
24873;SDS011;12945;42.648;23.370;2023-09-08T00:15:19;21.88;;;10.77;;
24873;SDS011;12945;42.648;23.370;2023-09-08T00:17:44;19.63;;;10.20;;
24873;SDS011;12945;42.648;23.370;2023-09-08T00:20:12;16.35;;;10.25;;
24873;SDS011;12945;42.648;23.370;2023-09-08T00:22:38;14.75;;;9.82;;
24873;SDS011;12945;42.648;23.370;2023-09-08T00:25:03;15.85;;;9.55;;
24873;SDS011;12945;42.648;23.370;2023-09-08T00:27:29;11.27;;;9.00;;
24873;SDS011;12945;42.648;23.370;2023-09-08T00:29:54;12.80;;;8.57;;
24873;SDS011;12945;42.648;23.370;2023-09-08T00:32:20;12.68;;;8.25;;
24873;SDS011;12945;42.648;23.370;2023-09-08T00:34:45;11.52;;;8.15;;
24873;SDS011;12945;42.648;23.370;2023-09-08T00:37:10;15.55;;;7.65;;
24873;SDS011;12945;42.648;23.370;2023-09-08T00:39:36;18.10;;;7.57;;
24873;SDS011;12945;42.648;23.370;2023-09-08T00:42:01;13.75;;;6.97;;
24873;SDS011;12945;42.648;23.370;2023-09-08T00:44:26;9.02;;;7.10;;
24873;SDS011;12945;42.648;23.370;2023-09-08T00:46:52;10.10;;;6.45;;
24873;SDS011;12945;42.648;23.370;2023-09-08T00:49:17;9.88;;;6.85;;
24873;SDS011;12945;42.648;23.370;2023-09-08T00:51:48;11.32;;;6.95;;
24873;SDS011;12945;42.648;23.370;2023-09-08T00:54:14;17.58;;;6.20;;
24873;SDS011;12945;42.648;23.370;2023-09-08T00:56:39;10.82;;;6.07;;
24873;SDS011;12945;42.648;23.370;2023-09-08T00:59:05;11.32;;;6.13;;
24873;SDS011;12945;42.648;23.370;2023-09-08T01:01:30;13.57;;;6.43;;
24873;SDS011;12945;42.648;23.370;2023-09-08T01:03:56;10.77;;;6.55;;
24873;SDS011;12945;42.648;23.370;2023-09-08T01:06:21;8.27;;;6.30;;
24873;SDS011;12945;42.648;23.370;2023-09-08T01:08:47;10.30;;;5.78;;
24873;SDS011;12945;42.648;23.370;2023-09-08T01:11:13;12.68;;;5.97;;
24873;SDS011;12945;42.648;23.370;2023-09-08T01:13:38;12.30;;;6.03;;
24873;SDS011;12945;42.648;23.370;2023-09-08T01:16:03;9.25;;;5.82;;
24873;SDS011;12945;42.648;23.370;2023-09-08T01:18:28;10.93;;;6.13;;
24873;SDS011;12945;42.648;23.370;2023-09-08T01:23:30;9.57;;;6.20;;
24873;SDS011;12945;42.648;23.370;2023-09-08T01:26:07;11.20;;;5.70;;
24873;SDS011;12945;42.648;23.370;2023-09-08T01:28:33;14.10;;;6.20;;
24873;SDS011;12945;42.648;23.370;2023-09-08T01:30:59;12.48;;;6.00;;
24873;SDS011;12945;42.648;23.370;2023-09-08T01:33:25;10.23;;;6.28;;
24873;SDS011;12945;42.648;23.370;2023-09-08T01:35:51;9.77;;;5.57;;
24873;SDS011;12945;42.648;23.370;2023-09-08T01:38:16;9.57;;;6.30;;
24873;SDS011;12945;42.648;23.370;2023-09-08T01:40:41;9.20;;;6.00;;
24873;SDS011;12945;42.648;23.370;2023-09-08T01:43:07;14.65;;;6.32;;
24873;SDS011;12945;42.648;23.370;2023-09-08T01:45:32;12.90;;;6.28;;
24873;SDS011;12945;42.648;23.370;2023-09-08T01:47:57;12.43;;;6.25;;
24873;SDS011;12945;42.648;23.370;2023-09-08T01:50:23;12.57;;;6.18;;
24873;SDS011;12945;42.648;23.370;2023-09-08T01:52:49;9.85;;;5.95;;
24873;SDS011;12945;42.648;23.370;2023-09-08T01:55:15;10.07;;;6.22;;
24873;SDS011;12945;42.648;23.370;2023-09-08T01:57:41;12.75;;;6.80;;
24873;SDS011;12945;42.648;23.370;2023-09-08T02:00:07;12.18;;;6.65;;
24873;SDS011;12945;42.648;23.370;2023-09-08T02:02:32;11.32;;;6.22;;
24873;SDS011;12945;42.648;23.370;2023-09-08T02:04:58;10.35;;;6.63;;
24873;SDS011;12945;42.648;23.370;2023-09-08T02:07:23;10.30;;;6.95;;
24873;SDS011;12945;42.648;23.370;2023-09-08T02:09:48;10.65;;;6.53;;
24873;SDS011;12945;42.648;23.370;2023-09-08T02:12:13;9.93;;;6.80;;
24873;SDS011;12945;42.648;23.370;2023-09-08T02:14:39;13.05;;;7.32;;
24873;SDS011;12945;42.648;23.370;2023-09-08T02:17:04;11.52;;;6.97;;
24873;SDS011;12945;42.648;23.370;2023-09-08T02:19:31;16.80;;;8.02;;
24873;SDS011;12945;42.648;23.370;2023-09-08T02:21:56;11.32;;;7.13;;
24873;SDS011;12945;42.648;23.370;2023-09-08T02:24:21;9.38;;;7.15;;
24873;SDS011;12945;42.648;23.370;2023-09-08T02:26:47;9.10;;;6.88;;
24873;SDS011;12945;42.648;23.370;2023-09-08T02:29:12;10.50;;;7.57;;
24873;SDS011;12945;42.648;23.370;2023-09-08T02:31:37;18.02;;;7.88;;
24873;SDS011;12945;42.648;23.370;2023-09-08T02:34:03;16.52;;;8.32;;
24873;SDS011;12945;42.648;23.370;2023-09-08T02:36:29;9.80;;;7.00;;
24873;SDS011;12945;42.648;23.370;2023-09-08T02:38:55;11.52;;;8.27;;
24873;SDS011;12945;42.648;23.370;2023-09-08T02:41:20;12.73;;;7.10;;
24873;SDS011;12945;42.648;23.370;2023-09-08T02:43:46;12.25;;;7.60;;
24873;SDS011;12945;42.648;23.370;2023-09-08T02:46:11;14.57;;;7.65;;
24873;SDS011;12945;42.648;23.370;2023-09-08T02:48:37;15.43;;;7.57;;
24873;SDS011;12945;42.648;23.370;2023-09-08T02:51:02;13.30;;;7.88;;
24873;SDS011;12945;42.648;23.370;2023-09-08T02:53:27;16.38;;;8.45;;
24873;SDS011;12945;42.648;23.370;2023-09-08T02:55:56;13.55;;;8.38;;
24873;SDS011;12945;42.648;23.370;2023-09-08T02:58:22;15.18;;;8.70;;
24873;SDS011;12945;42.648;23.370;2023-09-08T03:00:47;11.10;;;7.85;;
24873;SDS011;12945;42.648;23.370;2023-09-08T03:03:12;14.98;;;9.00;;
24873;SDS011;12945;42.648;23.370;2023-09-08T03:05:37;13.20;;;8.38;;
24873;SDS011;12945;42.648;23.370;2023-09-08T03:08:03;17.15;;;9.05;;
24873;SDS011;12945;42.648;23.370;2023-09-08T03:10:30;16.50;;;8.70;;
24873;SDS011;12945;42.648;23.370;2023-09-08T03:12:59;13.25;;;8.32;;
24873;SDS011;12945;42.648;23.370;2023-09-08T03:15:24;16.15;;;9.07;;
24873;SDS011;12945;42.648;23.370;2023-09-08T03:17:53;18.27;;;9.05;;
24873;SDS011;12945;42.648;23.370;2023-09-08T03:20:18;19.35;;;8.95;;
24873;SDS011;12945;42.648;23.370;2023-09-08T03:22:43;18.27;;;9.98;;
24873;SDS011;12945;42.648;23.370;2023-09-08T03:25:09;12.65;;;9.52;;
24873;SDS011;12945;42.648;23.370;2023-09-08T03:27:34;18.70;;;9.98;;
24873;SDS011;12945;42.648;23.370;2023-09-08T03:29:59;14.45;;;9.48;;
24873;SDS011;12945;42.648;23.370;2023-09-08T03:32:25;15.07;;;9.60;;
24873;SDS011;12945;42.648;23.370;2023-09-08T03:34:50;17.10;;;9.50;;
24873;SDS011;12945;42.648;23.370;2023-09-08T03:37:15;16.70;;;9.88;;
24873;SDS011;12945;42.648;23.370;2023-09-08T03:39:41;12.40;;;9.55;;
24873;SDS011;12945;42.648;23.370;2023-09-08T03:42:06;16.40;;;10.05;;
24873;SDS011;12945;42.648;23.370;2023-09-08T03:44:31;18.58;;;9.95;;
24873;SDS011;12945;42.648;23.370;2023-09-08T03:46:56;16.98;;;10.75;;
24873;SDS011;12945;42.648;23.370;2023-09-08T03:49:22;15.95;;;10.55;;
24873;SDS011;12945;42.648;23.370;2023-09-08T03:51:47;18.27;;;10.30;;
24873;SDS011;12945;42.648;23.370;2023-09-08T03:54:12;14.93;;;10.60;;
24873;SDS011;12945;42.648;23.370;2023-09-08T03:56:37;16.52;;;10.63;;
24873;SDS011;12945;42.648;23.370;2023-09-08T03:59:03;19.88;;;10.60;;
24873;SDS011;12945;42.648;23.370;2023-09-08T04:01:28;13.85;;;9.88;;
24873;SDS011;12945;42.648;23.370;2023-09-08T04:03:53;18.92;;;9.40;;
24873;SDS011;12945;42.648;23.370;2023-09-08T04:06:19;15.10;;;9.95;;
24873;SDS011;12945;42.648;23.370;2023-09-08T04:08:44;20.67;;;10.77;;
24873;SDS011;12945;42.648;23.370;2023-09-08T04:11:09;14.40;;;9.48;;
24873;SDS011;12945;42.648;23.370;2023-09-08T04:13:34;14.52;;;9.98;;
24873;SDS011;12945;42.648;23.370;2023-09-08T04:16:00;18.17;;;10.52;;
24873;SDS011;12945;42.648;23.370;2023-09-08T04:18:25;16.17;;;10.13;;
24873;SDS011;12945;42.648;23.370;2023-09-08T04:20:50;17.73;;;10.35;;
24873;SDS011;12945;42.648;23.370;2023-09-08T04:23:15;16.13;;;10.45;;
24873;SDS011;12945;42.648;23.370;2023-09-08T04:25:41;21.05;;;10.63;;
24873;SDS011;12945;42.648;23.370;2023-09-08T04:28:06;16.65;;;10.13;;
24873;SDS011;12945;42.648;23.370;2023-09-08T04:30:31;14.35;;;10.10;;
24873;SDS011;12945;42.648;23.370;2023-09-08T04:32:57;14.88;;;9.90;;
24873;SDS011;12945;42.648;23.370;2023-09-08T04:35:22;21.40;;;9.55;;
24873;SDS011;12945;42.648;23.370;2023-09-08T04:37:47;17.27;;;10.27;;
24873;SDS011;12945;42.648;23.370;2023-09-08T04:40:13;14.23;;;8.90;;
24873;SDS011;12945;42.648;23.370;2023-09-08T04:42:39;17.80;;;9.85;;
24873;SDS011;12945;42.648;23.370;2023-09-08T04:45:05;15.43;;;9.25;;
24873;SDS011;12945;42.648;23.370;2023-09-08T04:47:30;16.75;;;10.23;;
24873;SDS011;12945;42.648;23.370;2023-09-08T04:49:55;16.77;;;9.40;;
24873;SDS011;12945;42.648;23.370;2023-09-08T04:52:20;16.60;;;9.80;;
24873;SDS011;12945;42.648;23.370;2023-09-08T04:54:46;14.88;;;9.07;;
24873;SDS011;12945;42.648;23.370;2023-09-08T04:57:11;14.20;;;9.60;;
24873;SDS011;12945;42.648;23.370;2023-09-08T04:59:36;17.70;;;9.00;;
24873;SDS011;12945;42.648;23.370;2023-09-08T05:02:04;21.25;;;9.15;;
24873;SDS011;12945;42.648;23.370;2023-09-08T05:04:29;18.02;;;9.05;;
24873;SDS011;12945;42.648;23.370;2023-09-08T05:06:55;21.13;;;9.07;;
24873;SDS011;12945;42.648;23.370;2023-09-08T05:09:20;15.68;;;8.75;;
24873;SDS011;12945;42.648;23.370;2023-09-08T05:11:46;16.38;;;8.88;;
24873;SDS011;12945;42.648;23.370;2023-09-08T05:14:11;24.92;;;8.93;;
24873;SDS011;12945;42.648;23.370;2023-09-08T05:16:37;11.00;;;7.80;;
24873;SDS011;12945;42.648;23.370;2023-09-08T05:19:05;14.98;;;7.47;;
24873;SDS011;12945;42.648;23.370;2023-09-08T05:21:31;21.02;;;8.10;;
24873;SDS011;12945;42.648;23.370;2023-09-08T05:23:56;17.83;;;7.80;;
24873;SDS011;12945;42.648;23.370;2023-09-08T05:26:21;14.35;;;7.68;;
24873;SDS011;12945;42.648;23.370;2023-09-08T05:28:47;22.15;;;7.63;;
24873;SDS011;12945;42.648;23.370;2023-09-08T05:31:12;10.30;;;7.30;;
24873;SDS011;12945;42.648;23.370;2023-09-08T05:33:37;12.98;;;7.45;;
24873;SDS011;12945;42.648;23.370;2023-09-08T05:36:03;18.38;;;7.55;;
24873;SDS011;12945;42.648;23.370;2023-09-08T05:38:28;9.63;;;6.60;;
24873;SDS011;12945;42.648;23.370;2023-09-08T05:40:53;13.98;;;6.40;;
24873;SDS011;12945;42.648;23.370;2023-09-08T05:43:19;13.45;;;6.95;;
24873;SDS011;12945;42.648;23.370;2023-09-08T05:45:44;15.15;;;6.78;;
24873;SDS011;12945;42.648;23.370;2023-09-08T05:48:09;17.27;;;7.95;;
24873;SDS011;12945;42.648;23.370;2023-09-08T05:50:35;12.48;;;6.60;;
24873;SDS011;12945;42.648;23.370;2023-09-08T05:53:01;13.13;;;6.70;;
24873;SDS011;12945;42.648;23.370;2023-09-08T05:55:26;12.27;;;6.30;;
24873;SDS011;12945;42.648;23.370;2023-09-08T05:57:51;13.68;;;6.72;;
24873;SDS011;12945;42.648;23.370;2023-09-08T06:00:17;14.57;;;6.47;;
24873;SDS011;12945;42.648;23.370;2023-09-08T06:02:42;11.73;;;6.10;;
24873;SDS011;12945;42.648;23.370;2023-09-08T06:05:07;8.70;;;6.13;;
24873;SDS011;12945;42.648;23.370;2023-09-08T06:07:33;12.93;;;6.22;;
24873;SDS011;12945;42.648;23.370;2023-09-08T06:09:58;11.00;;;6.55;;
24873;SDS011;12945;42.648;23.370;2023-09-08T06:12:23;9.48;;;5.90;;
24873;SDS011;12945;42.648;23.370;2023-09-08T06:14:49;13.45;;;5.88;;
24873;SDS011;12945;42.648;23.370;2023-09-08T06:17:14;11.75;;;5.70;;
24873;SDS011;12945;42.648;23.370;2023-09-08T06:19:39;16.30;;;5.72;;
24873;SDS011;12945;42.648;23.370;2023-09-08T06:22:04;11.40;;;5.47;;
24873;SDS011;12945;42.648;23.370;2023-09-08T06:24:30;15.85;;;5.32;;
24873;SDS011;12945;42.648;23.370;2023-09-08T06:26:55;11.25;;;5.07;;
24873;SDS011;12945;42.648;23.370;2023-09-08T06:29:20;9.57;;;4.80;;
24873;SDS011;12945;42.648;23.370;2023-09-08T06:31:46;7.50;;;4.97;;
24873;SDS011;12945;42.648;23.370;2023-09-08T06:34:11;9.10;;;4.55;;
24873;SDS011;12945;42.648;23.370;2023-09-08T06:36:36;11.20;;;4.80;;
24873;SDS011;12945;42.648;23.370;2023-09-08T06:39:01;7.25;;;4.60;;
24873;SDS011;12945;42.648;23.370;2023-09-08T06:41:27;6.70;;;3.97;;
24873;SDS011;12945;42.648;23.370;2023-09-08T06:43:53;8.95;;;4.97;;
24873;SDS011;12945;42.648;23.370;2023-09-08T06:46:19;10.65;;;4.50;;
24873;SDS011;12945;42.648;23.370;2023-09-08T06:48:44;11.10;;;4.30;;
24873;SDS011;12945;42.648;23.370;2023-09-08T06:51:09;7.22;;;3.90;;
24873;SDS011;12945;42.648;23.370;2023-09-08T06:53:35;7.65;;;4.72;;
24873;SDS011;12945;42.648;23.370;2023-09-08T06:56:00;13.30;;;4.75;;
24873;SDS011;12945;42.648;23.370;2023-09-08T06:58:26;7.60;;;4.07;;
24873;SDS011;12945;42.648;23.370;2023-09-08T07:00:51;9.40;;;4.30;;
24873;SDS011;12945;42.648;23.370;2023-09-08T07:03:19;8.82;;;4.63;;
24873;SDS011;12945;42.648;23.370;2023-09-08T07:05:45;9.65;;;4.43;;
24873;SDS011;12945;42.648;23.370;2023-09-08T07:08:10;8.73;;;4.13;;
24873;SDS011;12945;42.648;23.370;2023-09-08T07:10:35;8.75;;;4.00;;
24873;SDS011;12945;42.648;23.370;2023-09-08T07:13:01;11.83;;;4.40;;
24873;SDS011;12945;42.648;23.370;2023-09-08T07:15:26;9.00;;;4.45;;
24873;SDS011;12945;42.648;23.370;2023-09-08T07:17:51;10.13;;;4.45;;
24873;SDS011;12945;42.648;23.370;2023-09-08T07:20:17;7.85;;;4.00;;
24873;SDS011;12945;42.648;23.370;2023-09-08T07:22:42;8.32;;;4.30;;
24873;SDS011;12945;42.648;23.370;2023-09-08T07:25:08;10.30;;;4.10;;
24873;SDS011;12945;42.648;23.370;2023-09-08T07:27:34;9.13;;;3.63;;
24873;SDS011;12945;42.648;23.370;2023-09-08T07:29:59;7.65;;;4.10;;
24873;SDS011;12945;42.648;23.370;2023-09-08T07:32:25;10.83;;;4.40;;
24873;SDS011;12945;42.648;23.370;2023-09-08T07:34:50;6.95;;;4.40;;
24873;SDS011;12945;42.648;23.370;2023-09-08T07:37:20;7.35;;;4.32;;
24873;SDS011;12945;42.648;23.370;2023-09-08T07:39:46;10.02;;;4.30;;
24873;SDS011;12945;42.648;23.370;2023-09-08T07:42:11;10.95;;;4.25;;
24873;SDS011;12945;42.648;23.370;2023-09-08T07:44:36;7.77;;;3.53;;
24873;SDS011;12945;42.648;23.370;2023-09-08T07:47:02;7.22;;;3.88;;
24873;SDS011;12945;42.648;23.370;2023-09-08T07:49:27;11.02;;;4.47;;
24873;SDS011;12945;42.648;23.370;2023-09-08T07:51:52;6.03;;;3.90;;
24873;SDS011;12945;42.648;23.370;2023-09-08T07:54:18;9.00;;;4.05;;
24873;SDS011;12945;42.648;23.370;2023-09-08T07:56:43;5.20;;;3.88;;
24873;SDS011;12945;42.648;23.370;2023-09-08T07:59:08;6.93;;;4.20;;
24873;SDS011;12945;42.648;23.370;2023-09-08T08:01:33;6.65;;;3.60;;
24873;SDS011;12945;42.648;23.370;2023-09-08T08:03:59;8.63;;;4.00;;
24873;SDS011;12945;42.648;23.370;2023-09-08T08:06:24;11.27;;;3.92;;
24873;SDS011;12945;42.648;23.370;2023-09-08T08:08:49;7.57;;;3.67;;
24873;SDS011;12945;42.648;23.370;2023-09-08T08:11:15;6.85;;;3.80;;
24873;SDS011;12945;42.648;23.370;2023-09-08T08:13:41;7.10;;;3.72;;
24873;SDS011;12945;42.648;23.370;2023-09-08T08:16:06;6.00;;;3.58;;
24873;SDS011;12945;42.648;23.370;2023-09-08T08:18:31;9.57;;;3.63;;
24873;SDS011;12945;42.648;23.370;2023-09-08T08:20:57;6.35;;;3.53;;
24873;SDS011;12945;42.648;23.370;2023-09-08T08:23:22;7.55;;;4.00;;
24873;SDS011;12945;42.648;23.370;2023-09-08T08:25:51;17.10;;;3.63;;
24873;SDS011;12945;42.648;23.370;2023-09-08T08:28:16;7.20;;;3.28;;
24873;SDS011;12945;42.648;23.370;2023-09-08T08:30:42;9.90;;;3.72;;
24873;SDS011;12945;42.648;23.370;2023-09-08T08:33:07;6.35;;;3.40;;
24873;SDS011;12945;42.648;23.370;2023-09-08T08:35:32;7.53;;;3.33;;
24873;SDS011;12945;42.648;23.370;2023-09-08T08:37:58;7.15;;;3.50;;
24873;SDS011;12945;42.648;23.370;2023-09-08T08:40:24;6.57;;;3.50;;
24873;SDS011;12945;42.648;23.370;2023-09-08T08:42:54;9.95;;;3.35;;
24873;SDS011;12945;42.648;23.370;2023-09-08T08:45:19;9.93;;;3.45;;
24873;SDS011;12945;42.648;23.370;2023-09-08T08:47:46;5.93;;;3.42;;
24873;SDS011;12945;42.648;23.370;2023-09-08T08:50:11;7.10;;;3.80;;
24873;SDS011;12945;42.648;23.370;2023-09-08T08:52:37;4.88;;;3.20;;
24873;SDS011;12945;42.648;23.370;2023-09-08T08:55:03;6.53;;;3.45;;
24873;SDS011;12945;42.648;23.370;2023-09-08T08:57:28;6.00;;;3.47;;
24873;SDS011;12945;42.648;23.370;2023-09-08T08:59:54;5.47;;;3.45;;
24873;SDS011;12945;42.648;23.370;2023-09-08T09:02:19;7.18;;;3.92;;
24873;SDS011;12945;42.648;23.370;2023-09-08T09:04:45;6.32;;;3.80;;
24873;SDS011;12945;42.648;23.370;2023-09-08T09:07:12;8.35;;;3.58;;
24873;SDS011;12945;42.648;23.370;2023-09-08T09:09:37;6.07;;;4.03;;
24873;SDS011;12945;42.648;23.370;2023-09-08T09:12:05;9.00;;;3.80;;
24873;SDS011;12945;42.648;23.370;2023-09-08T09:14:34;6.00;;;3.97;;
24873;SDS011;12945;42.648;23.370;2023-09-08T09:17:00;7.60;;;3.70;;
24873;SDS011;12945;42.648;23.370;2023-09-08T09:19:26;6.35;;;4.10;;
24873;SDS011;12945;42.648;23.370;2023-09-08T09:24:29;10.93;;;3.60;;
24873;SDS011;12945;42.648;23.370;2023-09-08T09:26:55;8.13;;;4.93;;
24873;SDS011;12945;42.648;23.370;2023-09-08T09:29:21;9.70;;;4.30;;
24873;SDS011;12945;42.648;23.370;2023-09-08T09:31:53;7.15;;;4.30;;
24873;SDS011;12945;42.648;23.370;2023-09-08T09:34:19;9.15;;;4.13;;
24873;SDS011;12945;42.648;23.370;2023-09-08T09:36:45;7.50;;;3.90;;
24873;SDS011;12945;42.648;23.370;2023-09-08T09:39:11;5.15;;;3.40;;
24873;SDS011;12945;42.648;23.370;2023-09-08T09:41:37;7.50;;;3.58;;
24873;SDS011;12945;42.648;23.370;2023-09-08T09:44:02;8.63;;;3.97;;
24873;SDS011;12945;42.648;23.370;2023-09-08T09:46:28;8.48;;;3.80;;
24873;SDS011;12945;42.648;23.370;2023-09-08T09:48:56;7.30;;;3.65;;
24873;SDS011;12945;42.648;23.370;2023-09-08T09:51:22;5.80;;;3.30;;
24873;SDS011;12945;42.648;23.370;2023-09-08T09:53:49;9.23;;;3.47;;
24873;SDS011;12945;42.648;23.370;2023-09-08T09:56:15;11.50;;;3.75;;
24873;SDS011;12945;42.648;23.370;2023-09-08T09:58:41;5.95;;;3.55;;
24873;SDS011;12945;42.648;23.370;2023-09-08T10:01:07;6.38;;;3.92;;
24873;SDS011;12945;42.648;23.370;2023-09-08T10:03:33;7.40;;;3.53;;
24873;SDS011;12945;42.648;23.370;2023-09-08T10:05:59;6.55;;;3.65;;
24873;SDS011;12945;42.648;23.370;2023-09-08T10:08:24;6.15;;;3.72;;
24873;SDS011;12945;42.648;23.370;2023-09-08T10:10:50;8.27;;;3.53;;
24873;SDS011;12945;42.648;23.370;2023-09-08T10:13:18;11.70;;;4.18;;
24873;SDS011;12945;42.648;23.370;2023-09-08T10:15:47;14.02;;;3.97;;
24873;SDS011;12945;42.648;23.370;2023-09-08T10:18:15;7.53;;;3.50;;
24873;SDS011;12945;42.648;23.370;2023-09-08T10:20:41;7.53;;;3.50;;
24873;SDS011;12945;42.648;23.370;2023-09-08T10:23:10;5.72;;;3.42;;
24873;SDS011;12945;42.648;23.370;2023-09-08T10:25:39;6.40;;;3.65;;
24873;SDS011;12945;42.648;23.370;2023-09-08T10:28:06;6.18;;;3.88;;
24873;SDS011;12945;42.648;23.370;2023-09-08T10:30:32;6.70;;;3.70;;
24873;SDS011;12945;42.648;23.370;2023-09-08T10:32:58;7.10;;;3.50;;
24873;SDS011;12945;42.648;23.370;2023-09-08T10:35:24;6.60;;;3.30;;
24873;SDS011;12945;42.648;23.370;2023-09-08T10:37:50;8.38;;;3.30;;
24873;SDS011;12945;42.648;23.370;2023-09-08T10:40:24;8.18;;;3.35;;
24873;SDS011;12945;42.648;23.370;2023-09-08T10:43:08;8.82;;;3.75;;
24873;SDS011;12945;42.648;23.370;2023-09-08T10:45:33;9.23;;;3.72;;
24873;SDS011;12945;42.648;23.370;2023-09-08T10:47:59;7.97;;;3.65;;
24873;SDS011;12945;42.648;23.370;2023-09-08T10:50:29;7.53;;;4.10;;
24873;SDS011;12945;42.648;23.370;2023-09-08T10:55:38;9.20;;;3.70;;
24873;SDS011;12945;42.648;23.370;2023-09-08T10:58:04;10.05;;;3.83;;
24873;SDS011;12945;42.648;23.370;2023-09-08T11:00:41;8.27;;;3.95;;
24873;SDS011;12945;42.648;23.370;2023-09-08T11:03:07;8.35;;;3.78;;
24873;SDS011;12945;42.648;23.370;2023-09-08T11:05:32;10.40;;;3.53;;
24873;SDS011;12945;42.648;23.370;2023-09-08T11:07:58;8.13;;;3.40;;
24873;SDS011;12945;42.648;23.370;2023-09-08T11:10:24;7.55;;;3.75;;
24873;SDS011;12945;42.648;23.370;2023-09-08T11:12:49;7.70;;;4.00;;
24873;SDS011;12945;42.648;23.370;2023-09-08T11:15:16;9.93;;;4.05;;
24873;SDS011;12945;42.648;23.370;2023-09-08T11:17:41;10.67;;;4.10;;
24873;SDS011;12945;42.648;23.370;2023-09-08T11:20:07;5.22;;;3.38;;
24873;SDS011;12945;42.648;23.370;2023-09-08T11:22:34;6.93;;;4.22;;
24873;SDS011;12945;42.648;23.370;2023-09-08T11:24:59;6.85;;;3.80;;
24873;SDS011;12945;42.648;23.370;2023-09-08T11:27:27;9.90;;;4.05;;
24873;SDS011;12945;42.648;23.370;2023-09-08T11:29:52;14.20;;;4.15;;
24873;SDS011;12945;42.648;23.370;2023-09-08T11:32:18;7.15;;;4.10;;
24873;SDS011;12945;42.648;23.370;2023-09-08T11:34:43;6.47;;;3.50;;
24873;SDS011;12945;42.648;23.370;2023-09-08T11:37:09;10.38;;;4.05;;
24873;SDS011;12945;42.648;23.370;2023-09-08T11:39:38;13.65;;;3.45;;
24873;SDS011;12945;42.648;23.370;2023-09-08T11:42:03;6.50;;;3.88;;
24873;SDS011;12945;42.648;23.370;2023-09-08T11:44:29;10.73;;;3.97;;
24873;SDS011;12945;42.648;23.370;2023-09-08T11:46:54;7.90;;;3.85;;
24873;SDS011;12945;42.648;23.370;2023-09-08T11:49:19;8.82;;;4.18;;
24873;SDS011;12945;42.648;23.370;2023-09-08T11:51:45;4.75;;;3.80;;
24873;SDS011;12945;42.648;23.370;2023-09-08T11:54:11;11.18;;;3.65;;
24873;SDS011;12945;42.648;23.370;2023-09-08T11:56:37;7.25;;;4.10;;
24873;SDS011;12945;42.648;23.370;2023-09-08T11:59:02;9.90;;;4.00;;
24873;SDS011;12945;42.648;23.370;2023-09-08T12:01:28;7.95;;;4.22;;
24873;SDS011;12945;42.648;23.370;2023-09-08T12:03:56;6.88;;;4.25;;
24873;SDS011;12945;42.648;23.370;2023-09-08T12:06:26;7.57;;;4.30;;
24873;SDS011;12945;42.648;23.370;2023-09-08T12:08:52;8.83;;;4.07;;
24873;SDS011;12945;42.648;23.370;2023-09-08T12:11:18;8.32;;;4.53;;
24873;SDS011;12945;42.648;23.370;2023-09-08T12:13:43;6.85;;;4.10;;
24873;SDS011;12945;42.648;23.370;2023-09-08T12:16:18;6.10;;;4.10;;
24873;SDS011;12945;42.648;23.370;2023-09-08T12:18:44;10.98;;;4.05;;
24873;SDS011;12945;42.648;23.370;2023-09-08T12:21:10;6.32;;;3.75;;
24873;SDS011;12945;42.648;23.370;2023-09-08T12:23:35;6.50;;;3.50;;
24873;SDS011;12945;42.648;23.370;2023-09-08T12:26:11;8.20;;;4.32;;
24873;SDS011;12945;42.648;23.370;2023-09-08T12:28:36;4.85;;;3.40;;
24873;SDS011;12945;42.648;23.370;2023-09-08T12:31:02;8.30;;;3.78;;
24873;SDS011;12945;42.648;23.370;2023-09-08T12:33:28;9.18;;;4.03;;
24873;SDS011;12945;42.648;23.370;2023-09-08T12:35:53;7.25;;;4.13;;
24873;SDS011;12945;42.648;23.370;2023-09-08T12:38:18;8.88;;;3.63;;
24873;SDS011;12945;42.648;23.370;2023-09-08T12:40:44;5.90;;;3.90;;
24873;SDS011;12945;42.648;23.370;2023-09-08T12:43:10;6.15;;;3.88;;
24873;SDS011;12945;42.648;23.370;2023-09-08T12:45:36;7.90;;;3.92;;
24873;SDS011;12945;42.648;23.370;2023-09-08T12:48:01;9.50;;;4.25;;
24873;SDS011;12945;42.648;23.370;2023-09-08T12:50:27;10.02;;;4.20;;
24873;SDS011;12945;42.648;23.370;2023-09-08T12:52:53;7.57;;;4.25;;
24873;SDS011;12945;42.648;23.370;2023-09-08T12:55:19;5.45;;;3.60;;
24873;SDS011;12945;42.648;23.370;2023-09-08T12:57:44;9.77;;;3.83;;
24873;SDS011;12945;42.648;23.370;2023-09-08T13:00:09;5.80;;;4.03;;
24873;SDS011;12945;42.648;23.370;2023-09-08T13:02:35;10.65;;;4.07;;
24873;SDS011;12945;42.648;23.370;2023-09-08T13:05:01;5.70;;;4.00;;
24873;SDS011;12945;42.648;23.370;2023-09-08T13:07:26;8.65;;;4.32;;
24873;SDS011;12945;42.648;23.370;2023-09-08T13:09:52;5.88;;;4.13;;
24873;SDS011;12945;42.648;23.370;2023-09-08T13:12:17;7.28;;;4.00;;
24873;SDS011;12945;42.648;23.370;2023-09-08T13:14:42;8.18;;;4.53;;
24873;SDS011;12945;42.648;23.370;2023-09-08T13:17:09;4.65;;;4.00;;
24873;SDS011;12945;42.648;23.370;2023-09-08T13:19:35;8.20;;;4.28;;
24873;SDS011;12945;42.648;23.370;2023-09-08T13:22:00;6.57;;;4.13;;
24873;SDS011;12945;42.648;23.370;2023-09-08T13:24:25;9.93;;;4.45;;
24873;SDS011;12945;42.648;23.370;2023-09-08T13:26:50;9.47;;;4.13;;
24873;SDS011;12945;42.648;23.370;2023-09-08T13:29:16;10.30;;;4.30;;
24873;SDS011;12945;42.648;23.370;2023-09-08T13:31:41;7.45;;;4.30;;
24873;SDS011;12945;42.648;23.370;2023-09-08T13:34:07;6.75;;;4.18;;
24873;SDS011;12945;42.648;23.370;2023-09-08T13:36:32;8.80;;;4.20;;
24873;SDS011;12945;42.648;23.370;2023-09-08T13:38:57;8.57;;;4.30;;
24873;SDS011;12945;42.648;23.370;2023-09-08T13:41:23;9.05;;;4.07;;
24873;SDS011;12945;42.648;23.370;2023-09-08T13:43:48;5.70;;;4.28;;
24873;SDS011;12945;42.648;23.370;2023-09-08T13:46:14;11.77;;;4.10;;
24873;SDS011;12945;42.648;23.370;2023-09-08T13:48:39;6.60;;;4.07;;
24873;SDS011;12945;42.648;23.370;2023-09-08T13:51:04;9.80;;;4.20;;
24873;SDS011;12945;42.648;23.370;2023-09-08T13:53:30;10.63;;;4.43;;
24873;SDS011;12945;42.648;23.370;2023-09-08T13:56:01;9.40;;;4.10;;
24873;SDS011;12945;42.648;23.370;2023-09-08T13:58:27;8.77;;;4.20;;
24873;SDS011;12945;42.648;23.370;2023-09-08T14:00:52;9.50;;;3.83;;
24873;SDS011;12945;42.648;23.370;2023-09-08T14:03:18;8.80;;;4.53;;
24873;SDS011;12945;42.648;23.370;2023-09-08T14:05:43;8.10;;;4.30;;
24873;SDS011;12945;42.648;23.370;2023-09-08T14:08:09;12.27;;;3.85;;
24873;SDS011;12945;42.648;23.370;2023-09-08T14:10:35;9.77;;;4.70;;
24873;SDS011;12945;42.648;23.370;2023-09-08T14:13:00;9.27;;;4.18;;
24873;SDS011;12945;42.648;23.370;2023-09-08T14:15:25;9.98;;;4.28;;
24873;SDS011;12945;42.648;23.370;2023-09-08T14:17:50;7.17;;;4.33;;
24873;SDS011;12945;42.648;23.370;2023-09-08T14:20:16;4.53;;;3.77;;
24873;SDS011;12945;42.648;23.370;2023-09-08T14:22:41;6.50;;;3.97;;
24873;SDS011;12945;42.648;23.370;2023-09-08T14:25:07;7.88;;;4.30;;